Time;durP1;ratioP1;P1;durP2;ratioP2;P2;SDS_P1;SDS_P2;PMS_P1;PMS_P2;Temp;Humidity;BMP_temperature;BMP_pressure;BME280_temperature;BME280_humidity;BME280_pressure;Samples;Min_cycle;Max_cycle;Signal;HPM_P1;HPM_P2
2024/02/01 00:01:08;;;;;;;6.25;5.72;;;6.30;1.00;;;;;;5108568;27;20268;-77
2024/02/01 00:03:35;;;;;;;7.55;6.10;;;6.30;1.00;;;;;;5111052;27;20306;-77
2024/02/01 00:06:04;;;;;;;6.82;5.80;;;6.30;1.00;;;;;;5109971;27;20246;-78
2024/02/01 00:08:31;;;;;;;6.63;6.07;;;6.30;1.00;;;;;;5110570;27;20243;-77
2024/02/01 00:10:58;;;;;;;6.10;5.13;;;6.30;1.00;;;;;;5109863;27;20232;-77
2024/02/01 00:13:25;;;;;;;8.27;5.35;;;6.30;1.00;;;;;;5107962;27;20237;-77
2024/02/01 00:15:52;;;;;;;6.88;5.90;;;6.20;1.00;;;;;;5108417;27;20228;-78
2024/02/01 00:18:19;;;;;;;6.65;6.00;;;6.20;1.00;;;;;;5109577;27;21131;-77
2024/02/01 00:20:46;;;;;;;6.63;5.90;;;6.30;1.00;;;;;;5110922;27;20288;-78
2024/02/01 00:23:14;;;;;;;7.20;5.68;;;6.30;1.00;;;;;;5112497;27;20276;-78
2024/02/01 00:25:41;;;;;;;7.95;6.60;;;6.30;1.00;;;;;;5109330;27;20273;-77
2024/02/01 00:28:10;;;;;;;7.22;6.10;;;6.20;1.00;;;;;;5104678;27;20302;-77
2024/02/01 00:30:39;;;;;;;6.65;6.03;;;6.20;1.00;;;;;;5107004;27;20245;-77
2024/02/01 00:33:06;;;;;;;7.45;5.85;;;6.20;1.00;;;;;;5111627;27;20324;-78
2024/02/01 00:35:33;;;;;;;6.85;6.15;;;6.20;1.00;;;;;;5111795;27;20236;-77
2024/02/01 00:38:00;;;;;;;6.13;5.57;;;6.20;1.00;;;;;;5109853;27;20223;-77
2024/02/01 00:40:28;;;;;;;7.40;5.95;;;6.20;1.00;;;;;;5112427;27;21038;-77
2024/02/01 00:42:56;;;;;;;8.65;6.70;;;6.30;1.00;;;;;;5111470;27;20245;-77
2024/02/01 00:45:23;;;;;;;6.68;6.07;;;6.20;1.00;;;;;;5094136;28;20319;-77
2024/02/01 00:47:50;;;;;;;7.03;6.40;;;6.30;1.00;;;;;;5112466;27;20796;-76
2024/02/01 00:50:17;;;;;;;7.10;6.40;;;6.30;1.00;;;;;;5103800;27;20264;-77
2024/02/01 00:52:46;;;;;;;7.05;5.95;;;6.30;1.00;;;;;;5114947;27;20248;-77
2024/02/01 00:55:14;;;;;;;8.07;6.40;;;6.30;1.00;;;;;;5111119;27;20245;-78
2024/02/01 00:57:43;;;;;;;7.18;6.38;;;6.30;1.00;;;;;;5112999;27;21648;-76
2024/02/01 01:00:10;;;;;;;6.25;5.65;;;6.30;1.00;;;;;;5114697;27;20231;-76
2024/02/01 01:02:38;;;;;;;6.43;5.80;;;6.40;1.00;;;;;;5112566;27;20239;-77
2024/02/01 01:05:06;;;;;;;7.82;6.90;;;6.40;1.00;;;;;;5112369;27;20368;-75
2024/02/01 01:07:34;;;;;;;11.57;7.07;;;6.40;1.00;;;;;;5106256;27;20238;-78
2024/02/01 01:10:01;;;;;;;7.32;6.63;;;6.40;1.00;;;;;;5115253;27;20321;-76
2024/02/01 01:12:30;;;;;;;6.95;6.32;;;6.40;1.00;;;;;;5113117;27;20609;-74
2024/02/01 01:15:00;;;;;;;7.43;6.43;;;6.40;1.00;;;;;;5112421;27;20230;-74
2024/02/01 01:17:27;;;;;;;6.25;5.57;;;6.40;1.00;;;;;;5111147;27;20232;-72
2024/02/01 01:19:55;;;;;;;7.70;6.67;;;6.30;1.00;;;;;;5111380;27;20259;-72
2024/02/01 01:22:21;;;;;;;7.50;6.30;;;6.30;1.00;;;;;;5113832;27;20581;-74
2024/02/01 01:24:48;;;;;;;6.90;6.20;;;6.30;1.00;;;;;;5101623;27;20238;-74
2024/02/01 01:27:15;;;;;;;7.82;7.13;;;6.30;1.00;;;;;;5109639;27;20242;-74
2024/02/01 01:29:42;;;;;;;7.47;6.68;;;6.40;1.00;;;;;;5102232;27;20236;-76
2024/02/01 01:32:10;;;;;;;7.38;6.68;;;6.40;1.00;;;;;;5107899;27;20419;-74
2024/02/01 01:34:39;;;;;;;7.65;6.80;;;6.40;1.00;;;;;;5094001;27;20251;-74
2024/02/01 01:37:06;;;;;;;7.00;6.38;;;6.40;1.00;;;;;;5107343;27;20245;-74
2024/02/01 01:39:33;;;;;;;9.02;7.80;;;6.40;1.00;;;;;;5110664;27;20227;-73
2024/02/01 01:42:00;;;;;;;8.77;7.32;;;6.40;1.00;;;;;;5113115;27;20319;-76
2024/02/01 01:44:27;;;;;;;7.10;6.43;;;6.40;1.00;;;;;;5113074;27;20235;-74
2024/02/01 01:46:55;;;;;;;7.35;6.65;;;6.40;1.00;;;;;;5109882;27;20258;-74
2024/02/01 01:49:23;;;;;;;8.57;7.40;;;6.40;1.00;;;;;;5108474;27;20676;-71
2024/02/01 01:51:53;;;;;;;7.63;6.78;;;6.30;1.00;;;;;;5109273;27;20287;-72
2024/02/01 01:54:22;;;;;;;9.75;7.22;;;6.40;1.00;;;;;;5111373;27;20232;-74
2024/02/01 01:56:50;;;;;;;6.95;6.28;;;6.40;1.00;;;;;;5108082;27;20243;-72
2024/02/01 01:59:18;;;;;;;8.00;6.53;;;6.40;1.00;;;;;;5110469;27;20318;-75
2024/02/01 02:01:48;;;;;;;8.13;7.00;;;6.40;1.00;;;;;;5104486;27;20237;-72
2024/02/01 02:04:16;;;;;;;7.95;6.60;;;6.40;1.00;;;;;;5113497;27;20303;-74
2024/02/01 02:06:44;;;;;;;7.90;7.03;;;6.40;1.00;;;;;;5108876;27;20259;-73
2024/02/01 02:09:13;;;;;;;7.47;6.78;;;6.40;1.00;;;;;;5104620;27;20238;-72
2024/02/01 02:11:43;;;;;;;8.00;7.20;;;6.40;1.00;;;;;;5089447;28;20232;-75
2024/02/01 02:14:11;;;;;;;7.53;6.80;;;6.40;1.00;;;;;;5092995;28;20351;-73
2024/02/01 02:16:38;;;;;;;7.60;6.80;;;6.40;1.00;;;;;;5089353;28;20266;-73
2024/02/01 02:19:09;;;;;;;8.02;6.55;;;6.40;1.00;;;;;;5088382;28;20240;-73
2024/02/01 02:21:40;;;;;;;6.95;6.25;;;6.40;1.00;;;;;;5094334;28;20333;-74
2024/02/01 02:24:11;;;;;;;6.85;6.25;;;6.40;1.00;;;;;;5093960;28;20288;-74
2024/02/01 02:26:38;;;;;;;7.72;6.53;;;6.50;1.00;;;;;;5072677;28;21139;-76
2024/02/01 02:29:05;;;;;;;7.78;6.30;;;6.40;1.00;;;;;;5091413;28;20233;-75
2024/02/01 02:31:32;;;;;;;7.57;6.60;;;6.30;1.00;;;;;;5091582;28;20293;-75
2024/02/01 02:34:00;;;;;;;9.50;7.35;;;6.10;1.00;;;;;;5093793;27;20240;-76
2024/02/01 02:36:27;;;;;;;7.85;6.72;;;6.10;1.00;;;;;;5080478;27;20343;-76
2024/02/01 02:38:54;;;;;;;10.85;8.20;;;5.90;1.00;;;;;;5096306;27;20315;-75
2024/02/01 02:41:28;;;;;;;8.55;7.75;;;5.70;1.00;;;;;;5092752;28;20256;-75
2024/02/01 02:43:55;;;;;;;10.85;7.97;;;5.50;1.00;;;;;;5091905;27;20285;-75
2024/02/01 02:46:24;;;;;;;8.63;7.55;;;5.40;1.00;;;;;;5093125;28;20374;-74
2024/02/01 02:48:51;;;;;;;8.25;7.55;;;5.20;1.00;;;;;;5093523;28;20790;-75
2024/02/01 02:51:18;;;;;;;8.85;8.05;;;5.20;1.00;;;;;;5092161;28;20940;-74
2024/02/01 02:53:44;;;;;;;8.48;7.50;;;5.10;1.00;;;;;;5092081;28;20254;-74
2024/02/01 02:56:11;;;;;;;9.27;7.72;;;5.10;1.00;;;;;;5092907;28;20692;-73
2024/02/01 02:58:40;;;;;;;9.07;7.90;;;5.00;1.00;;;;;;5093975;28;20422;-74
2024/02/01 03:01:08;;;;;;;10.85;8.70;;;5.10;1.00;;;;;;5092020;28;20328;-74
2024/02/01 03:03:40;;;;;;;14.10;8.77;;;5.10;1.00;;;;;;5087590;28;20872;-74
2024/02/01 03:06:07;;;;;;;9.10;8.27;;;5.00;1.00;;;;;;5094930;27;20236;-75
2024/02/01 03:08:34;;;;;;;9.00;8.10;;;5.10;1.00;;;;;;5094296;28;20236;-75
2024/02/01 03:11:01;;;;;;;10.00;8.50;;;5.10;1.00;;;;;;5110346;27;20917;-74
2024/02/01 03:13:33;;;;;;;9.57;7.97;;;5.10;1.00;;;;;;5108749;27;20730;-75
2024/02/01 03:16:01;;;;;;;11.32;8.68;;;5.10;1.00;;;;;;5110850;27;20239;-75
2024/02/01 03:18:28;;;;;;;12.02;8.60;;;5.10;1.00;;;;;;5109830;27;20796;-75
2024/02/01 03:20:56;;;;;;;10.25;9.30;;;5.10;1.00;;;;;;5108439;27;20240;-75
2024/02/01 03:23:24;;;;;;;9.77;8.40;;;5.10;1.00;;;;;;5110350;27;20235;-74
2024/02/01 03:25:51;;;;;;;12.43;8.52;;;5.10;1.00;;;;;;5096033;27;20224;-76
2024/02/01 03:28:20;;;;;;;12.95;8.20;;;5.10;1.00;;;;;;5106726;27;20251;-75
2024/02/01 03:30:47;;;;;;;8.45;7.65;;;5.10;1.00;;;;;;5105577;27;20261;-76
2024/02/01 03:33:15;;;;;;;8.80;7.90;;;5.10;1.00;;;;;;5106584;27;20241;-72
2024/02/01 03:35:42;;;;;;;8.63;7.82;;;5.10;1.00;;;;;;5106403;27;20773;-72
2024/02/01 03:38:15;;;;;;;10.38;8.15;;;5.10;1.00;;;;;;5109541;27;20245;-72
2024/02/01 03:40:42;;;;;;;10.75;8.57;;;5.10;1.00;;;;;;5105590;27;21120;-74
2024/02/01 03:43:11;;;;;;;11.18;7.90;;;5.10;1.00;;;;;;5110528;27;20298;-72
2024/02/01 03:45:38;;;;;;;9.35;8.48;;;5.10;1.00;;;;;;5107573;27;21181;-71
2024/02/01 03:48:08;;;;;;;10.15;9.10;;;5.10;1.00;;;;;;5105927;27;20338;-74
2024/02/01 03:50:38;;;;;;;9.90;8.40;;;5.10;1.00;;;;;;5108998;27;20243;-73
2024/02/01 03:53:10;;;;;;;10.27;8.57;;;5.20;1.00;;;;;;5108092;27;20290;-74
2024/02/01 03:55:40;;;;;;;8.82;8.02;;;5.20;1.00;;;;;;5109447;27;20718;-74
2024/02/01 03:58:07;;;;;;;9.73;8.75;;;5.20;1.00;;;;;;5106038;27;20267;-71
2024/02/01 04:00:35;;;;;;;9.10;8.02;;;5.20;1.00;;;;;;5110059;27;20975;-71
2024/02/01 04:03:04;;;;;;;11.10;8.98;;;5.20;1.00;;;;;;5098392;27;20453;-71
2024/02/01 04:05:36;;;;;;;8.98;8.07;;;5.20;1.00;;;;;;5105001;27;20703;-73
2024/02/01 04:08:07;;;;;;;10.00;8.85;;;5.20;1.00;;;;;;5106538;27;20231;-74
2024/02/01 04:10:34;;;;;;;11.43;9.63;;;5.20;1.00;;;;;;5106186;27;20327;-73
2024/02/01 04:13:02;;;;;;;9.75;8.80;;;5.20;1.00;;;;;;5104323;27;20305;-72
2024/02/01 04:15:28;;;;;;;11.20;9.13;;;5.20;1.00;;;;;;5108704;27;20497;-75
2024/02/01 04:17:56;;;;;;;11.20;8.80;;;5.20;1.00;;;;;;5107281;27;20719;-72
2024/02/01 04:20:23;;;;;;;10.45;9.38;;;5.20;1.00;;;;;;5108783;27;21262;-73
2024/02/01 04:22:53;;;;;;;11.45;9.80;;;5.20;1.00;;;;;;5102359;27;20724;-77
2024/02/01 04:25:23;;;;;;;13.07;9.60;;;5.20;1.00;;;;;;5107708;27;20243;-73
2024/02/01 04:27:50;;;;;;;10.05;9.15;;;5.20;1.00;;;;;;5108919;27;20771;-74
2024/02/01 04:30:18;;;;;;;12.18;9.43;;;5.20;1.00;;;;;;5106606;27;20229;-74
2024/02/01 04:32:46;;;;;;;12.13;10.85;;;5.20;1.00;;;;;;5105739;27;20244;-74
2024/02/01 04:35:14;;;;;;;12.77;10.52;;;5.30;1.00;;;;;;5112598;27;20251;-73
2024/02/01 04:37:41;;;;;;;11.02;9.93;;;5.30;1.00;;;;;;5108176;27;20239;-73
2024/02/01 04:40:09;;;;;;;13.65;10.65;;;5.30;1.00;;;;;;5111476;27;20282;-74
2024/02/01 04:42:40;;;;;;;15.25;10.82;;;5.30;1.00;;;;;;5111639;27;20290;-77
2024/02/01 04:45:08;;;;;;;11.25;10.10;;;5.40;1.00;;;;;;5117388;27;20243;-77
2024/02/01 04:47:36;;;;;;;13.65;11.48;;;5.40;1.00;;;;;;5114999;27;20322;-76
2024/02/01 04:50:03;;;;;;;15.63;10.35;;;5.50;1.00;;;;;;5112727;27;20914;-77
2024/02/01 04:52:31;;;;;;;12.15;10.85;;;5.50;1.00;;;;;;5112233;27;20348;-76
2024/02/01 04:54:59;;;;;;;14.57;11.07;;;5.40;1.00;;;;;;5115331;27;21068;-75
2024/02/01 04:57:26;;;;;;;12.15;10.27;;;5.50;1.00;;;;;;5112802;27;20990;-75
2024/02/01 04:59:54;;;;;;;13.55;11.10;;;5.50;1.00;;;;;;5113111;27;20279;-77
2024/02/01 05:02:21;;;;;;;12.10;10.18;;;5.50;1.00;;;;;;5110789;27;20683;-78
2024/02/01 05:04:49;;;;;;;11.35;10.23;;;5.50;1.00;;;;;;5103277;27;20247;-77
2024/02/01 05:07:16;;;;;;;14.88;11.98;;;5.60;1.00;;;;;;5113975;27;20232;-76
2024/02/01 05:09:44;;;;;;;13.80;11.57;;;5.60;1.00;;;;;;4975567;27;3572856;-78
2024/02/01 05:12:12;;;;;;;13.13;11.40;;;5.60;1.00;;;;;;5094193;28;20652;-77
2024/02/01 05:14:39;;;;;;;15.27;11.30;;;5.60;1.00;;;;;;5092502;28;20241;-76
2024/02/01 05:17:08;;;;;;;12.48;11.18;;;5.60;1.00;;;;;;5090879;28;20271;-76
2024/02/01 05:19:36;;;;;;;13.00;11.60;;;5.60;1.00;;;;;;5093753;28;20238;-77
2024/02/01 05:22:07;;;;;;;13.55;11.50;;;5.60;1.00;;;;;;5092285;28;20259;-76
2024/02/01 05:24:34;;;;;;;14.10;12.35;;;5.60;1.00;;;;;;5087336;28;20278;-77
2024/02/01 05:27:07;;;;;;;13.27;11.98;;;5.70;1.00;;;;;;5083688;28;20320;-76
2024/02/01 05:29:35;;;;;;;13.60;12.20;;;5.80;1.00;;;;;;5093118;28;20238;-77
2024/02/01 05:32:06;;;;;;;14.00;12.52;;;5.80;1.00;;;;;;5093995;28;20293;-77
2024/02/01 05:34:35;;;;;;;14.05;12.48;;;5.80;1.00;;;;;;5090780;28;20338;-77
2024/02/01 05:37:02;;;;;;;13.38;12.07;;;5.90;1.00;;;;;;5093324;28;20232;-78
2024/02/01 05:39:29;;;;;;;17.23;12.80;;;5.90;1.00;;;;;;5091859;28;20738;-77
2024/02/01 05:41:57;;;;;;;17.55;13.07;;;5.90;1.00;;;;;;5097016;28;20241;-77
2024/02/01 05:44:25;;;;;;;17.20;14.77;;;6.00;1.00;;;;;;5089636;28;20284;-77
2024/02/01 05:46:54;;;;;;;15.30;12.95;;;6.00;1.00;;;;;;5090210;28;20434;-77
2024/02/01 05:49:24;;;;;;;16.15;13.77;;;6.00;1.00;;;;;;5091202;28;21083;-76
2024/02/01 05:51:54;;;;;;;15.38;13.90;;;6.10;1.00;;;;;;5092739;28;20244;-77
2024/02/01 05:54:23;;;;;;;14.40;12.80;;;6.10;1.00;;;;;;5090305;28;20240;-75
2024/02/01 05:56:50;;;;;;;15.70;13.68;;;6.20;1.00;;;;;;5089853;28;20494;-76
2024/02/01 05:59:20;;;;;;;15.05;13.65;;;6.20;1.00;;;;;;5090993;28;20244;-76
2024/02/01 06:01:48;;;;;;;14.48;12.90;;;6.20;1.00;;;;;;5093659;28;20294;-76
2024/02/01 06:04:16;;;;;;;15.40;13.90;;;6.20;1.00;;;;;;5084914;28;20665;-75
2024/02/01 06:06:45;;;;;;;15.32;13.68;;;6.20;1.00;;;;;;5094657;28;20233;-76
2024/02/01 06:09:15;;;;;;;14.27;12.80;;;6.20;1.00;;;;;;5099990;27;20292;-78
2024/02/01 06:11:48;;;;;;;15.45;13.27;;;6.20;1.00;;;;;;5109060;27;20258;-77
2024/02/01 06:14:15;;;;;;;15.80;13.23;;;6.20;1.00;;;;;;5106278;27;20243;-76
2024/02/01 06:16:42;;;;;;;18.58;13.27;;;6.20;1.00;;;;;;5112093;27;20245;-76
2024/02/01 06:19:09;;;;;;;14.82;13.25;;;6.20;1.00;;;;;;5109884;27;20241;-75
2024/02/01 06:21:37;;;;;;;14.88;13.20;;;6.20;1.00;;;;;;5108889;27;20325;-78
2024/02/01 06:24:05;;;;;;;17.52;13.65;;;6.30;1.00;;;;;;5109656;27;20237;-76
2024/02/01 06:26:33;;;;;;;15.40;13.80;;;6.30;1.00;;;;;;5106046;27;20317;-75
2024/02/01 06:29:07;;;;;;;16.23;14.30;;;6.30;1.00;;;;;;5108816;27;20251;-75
2024/02/01 06:31:37;;;;;;;15.98;14.35;;;6.30;1.00;;;;;;5107264;27;20256;-76
2024/02/01 06:34:05;;;;;;;14.77;12.98;;;6.30;1.00;;;;;;5108692;28;20232;-78
2024/02/01 06:36:36;;;;;;;15.73;13.70;;;6.30;1.00;;;;;;5117166;27;20244;-78
2024/02/01 06:39:16;;;;;;;18.20;15.07;;;6.40;1.00;;;;;;5113379;27;21003;-78
2024/02/01 06:41:51;;;;;;;15.60;14.00;;;6.40;1.00;;;;;;5110972;27;20276;-81
2024/02/01 06:44:24;;;;;;;15.48;13.88;;;6.40;1.00;;;;;;5108458;27;20241;-80
2024/02/01 06:47:07;;;;;;;16.45;13.60;;;6.40;1.00;;;;;;5113570;27;20228;-79
2024/02/01 06:49:59;;;;;;;18.02;14.45;;;6.50;1.00;;;;;;5108967;27;21982;-78
2024/02/01 06:52:40;;;;;;;15.60;13.82;;;6.50;1.00;;;;;;5111772;27;20241;-78
2024/02/01 06:58:03;;;;;;;14.52;13.13;;;6.50;1.00;;;;;;5115407;27;20237;-78
2024/02/01 07:03:32;;;;;;;17.48;14.40;;;6.50;1.00;;;;;;5108467;27;20452;-72
2024/02/01 07:06:05;;;;;;;15.07;13.30;;;6.50;1.00;;;;;;5093317;27;20237;-71
2024/02/01 07:08:45;;;;;;;15.90;14.13;;;6.50;1.00;;;;;;5110423;27;20238;-75
2024/02/01 07:11:24;;;;;;;15.75;14.00;;;6.50;1.00;;;;;;5091028;28;20432;-72
2024/02/01 07:14:08;;;;;;;15.55;13.85;;;6.50;1.00;;;;;;5069368;28;20241;-72
2024/02/01 07:16:43;;;;;;;15.10;13.27;;;6.60;1.00;;;;;;5091700;28;20235;-72
2024/02/01 07:19:23;;;;;;;15.77;14.17;;;6.60;1.00;;;;;;5076165;28;21232;-71
2024/02/01 07:22:06;;;;;;;15.10;13.40;;;6.60;1.00;;;;;;5090726;28;20482;-73
2024/02/01 07:57:55;;;;;;;14.02;10.88;;;6.90;1.00;;;;;;5075380;28;20844;-72
2024/02/01 08:00:33;;;;;;;14.03;12.17;;;6.90;1.00;;;;;;5093517;28;20253;-71
2024/02/01 08:03:22;;;;;;;10.93;9.83;;;7.00;1.00;;;;;;5092327;28;20550;-72
2024/02/01 08:08:38;;;;;;;10.03;9.10;;;7.00;1.00;;;;;;5088152;28;20531;-76
2024/02/01 08:11:05;;;;;;;10.87;9.73;;;7.00;1.00;;;;;;5111653;27;20546;-73
2024/02/01 08:13:33;;;;;;;11.80;9.10;;;7.10;1.00;;;;;;5109726;27;20452;-73
2024/02/01 08:16:02;;;;;;;13.50;9.57;;;7.00;1.00;;;;;;5105328;27;20478;-73
2024/02/01 08:18:34;;;;;;;12.87;8.77;;;7.00;1.00;;;;;;5112470;27;20483;-73
2024/02/01 08:21:03;;;;;;;8.53;7.60;;;7.00;1.00;;;;;;5112214;27;20455;-73
2024/02/01 08:23:35;;;;;;;12.13;7.77;;;7.00;1.00;;;;;;5109828;27;20556;-75
2024/02/01 08:26:06;;;;;;;7.83;7.03;;;7.10;1.00;;;;;;5112447;27;20522;-76
2024/02/01 08:28:35;;;;;;;7.97;7.18;;;7.20;1.00;;;;;;5109647;27;20461;-71
2024/02/01 08:31:08;;;;;;;11.00;7.97;;;7.30;1.00;;;;;;5108893;27;20678;-74
2024/02/01 08:33:42;;;;;;;6.97;6.27;;;7.30;1.00;;;;;;5110140;27;20468;-77
2024/02/01 08:36:12;;;;;;;8.03;6.40;;;7.30;1.00;;;;;;5108696;27;20512;-72
2024/02/01 08:38:39;;;;;;;10.55;8.25;;;7.30;1.00;;;;;;5109918;27;21321;-71
2024/02/01 08:41:06;;;;;;;7.10;6.40;;;7.40;1.00;;;;;;5108182;27;20237;-73
2024/02/01 08:43:38;;;;;;;7.40;6.00;;;7.40;1.00;;;;;;5111632;27;20548;-77
2024/02/01 08:46:06;;;;;;;8.87;5.77;;;7.70;1.00;;;;;;5106882;27;20547;-74
2024/02/01 08:48:33;;;;;;;8.40;6.13;;;7.80;1.00;;;;;;5105653;27;20463;-76
2024/02/01 08:51:02;;;;;;;9.63;6.17;;;8.00;1.00;;;;;;5107687;27;20476;-73
2024/02/01 08:53:29;;;;;;;7.87;5.77;;;8.20;1.00;;;;;;5106667;27;20470;-72
2024/02/01 08:55:57;;;;;;;10.80;5.33;;;8.20;1.00;;;;;;5105217;27;20443;-74
2024/02/01 08:58:25;;;;;;;7.67;5.90;;;8.30;1.00;;;;;;5106852;27;20555;-73
2024/02/01 09:00:52;;;;;;;7.47;5.00;;;8.50;1.00;;;;;;5107686;27;20469;-73
2024/02/01 09:03:29;;;;;;;7.10;4.60;;;8.80;1.00;;;;;;5109711;27;20535;-71
2024/02/01 09:06:08;;;;;;;9.40;5.13;;;8.90;1.00;;;;;;5111117;27;20556;-75
2024/02/01 09:08:38;;;;;;;10.53;5.43;;;8.80;1.00;;;;;;5110089;27;21235;-73
2024/02/01 09:11:11;;;;;;;8.43;5.23;;;9.00;1.00;;;;;;5087189;27;20458;-72
2024/02/01 09:13:43;;;;;;;6.87;4.43;;;8.90;1.00;;;;;;5087318;28;20482;-72
2024/02/01 09:16:10;;;;;;;6.57;4.60;;;8.70;1.00;;;;;;5089810;28;21261;-72
2024/02/01 09:18:38;;;;;;;9.60;4.87;;;8.80;1.00;;;;;;5087355;28;20486;-72
2024/02/01 09:21:08;;;;;;;12.90;5.20;;;8.90;1.00;;;;;;5093935;28;20459;-75
2024/02/01 09:23:38;;;;;;;7.33;4.50;;;8.80;1.00;;;;;;5092988;28;20457;-71
2024/02/01 09:26:08;;;;;;;6.77;4.37;;;8.80;1.00;;;;;;5093848;28;20501;-74
2024/02/01 09:28:40;;;;;;;9.50;4.87;;;8.80;1.00;;;;;;5092353;28;20477;-73
2024/02/01 09:31:18;;;;;;;7.10;4.90;;;9.00;1.00;;;;;;5090688;28;20458;-75
2024/02/01 09:33:45;;;;;;;8.73;5.03;;;9.20;1.00;;;;;;5094787;28;20477;-74
2024/02/01 09:36:14;;;;;;;11.10;5.03;;;9.30;1.00;;;;;;5091679;28;20474;-73
2024/02/01 09:38:44;;;;;;;7.60;4.10;;;9.40;1.00;;;;;;5093382;28;20490;-75
2024/02/01 09:41:17;;;;;;;9.33;4.90;;;9.70;1.00;;;;;;5092622;28;20512;-73
2024/02/01 09:43:50;;;;;;;9.17;4.20;;;10.00;1.00;;;;;;5092600;28;20494;-72
2024/02/01 09:46:18;;;;;;;7.83;3.77;;;10.80;1.00;;;;;;5093389;28;20557;-72
2024/02/01 09:48:45;;;;;;;6.33;3.93;;;11.40;1.00;;;;;;5091922;28;20458;-76
2024/02/01 09:51:18;;;;;;;10.57;4.10;;;11.60;1.00;;;;;;5092855;28;20547;-79
2024/02/01 09:53:48;;;;;;;10.13;3.80;;;11.50;1.00;;;;;;5089312;28;20970;-72
2024/02/01 09:56:16;;;;;;;9.40;3.07;;;11.80;1.00;;;;;;5092144;28;20564;-72
2024/02/01 09:58:44;;;;;;;8.53;3.40;;;11.80;1.00;;;;;;5072225;28;20455;-74
2024/02/01 10:01:12;;;;;;;5.20;3.20;;;11.60;1.00;;;;;;5090255;28;20468;-72
2024/02/01 10:03:42;;;;;;;8.40;3.60;;;11.10;1.00;;;;;;5093710;28;20494;-73
2024/02/01 10:06:09;;;;;;;7.03;3.23;;;11.00;1.00;;;;;;5092281;28;20466;-72
2024/02/01 10:08:38;;;;;;;5.90;3.10;;;11.10;1.00;;;;;;5091362;28;20567;-74
2024/02/01 10:11:19;;;;;;;10.20;3.80;;;11.20;1.00;;;;;;5107739;27;20499;-72
2024/02/01 10:13:50;;;;;;;10.27;3.67;;;11.70;1.00;;;;;;5108758;27;20531;-72
2024/02/01 10:16:21;;;;;;;8.20;3.10;;;12.10;1.00;;;;;;5111356;27;20535;-74
2024/02/01 10:18:53;;;;;;;8.30;3.50;;;11.90;1.00;;;;;;5109604;27;20488;-72
2024/02/01 10:21:23;;;;;;;9.67;3.70;;;11.90;1.00;;;;;;5107970;27;20461;-72
2024/02/01 10:23:50;;;;;;;5.27;3.10;;;11.60;1.00;;;;;;5114213;27;20476;-73
2024/02/01 10:26:25;;;;;;;9.07;2.90;;;11.00;1.00;;;;;;5110725;27;20466;-74
2024/02/01 10:28:53;;;;;;;8.10;3.13;;;10.80;1.00;;;;;;5107526;27;21022;-75
2024/02/01 10:31:25;;;;;;;7.13;3.70;;;10.60;1.00;;;;;;5107673;27;20465;-72
2024/02/01 10:33:55;;;;;;;12.17;3.40;;;11.00;1.00;;;;;;5111852;27;20827;-72
2024/02/01 10:36:23;;;;;;;5.77;2.60;;;11.10;1.00;;;;;;5110583;27;20453;-75
2024/02/01 10:38:58;;;;;;;9.60;3.20;;;10.90;1.00;;;;;;5110417;27;20450;-74
2024/02/01 10:41:32;;;;;;;4.33;2.80;;;10.60;1.00;;;;;;5115828;27;20478;-73
2024/02/01 10:44:03;;;;;;;6.30;2.30;;;10.50;1.00;;;;;;5109763;27;20976;-74
2024/02/01 10:46:38;;;;;;;9.47;3.30;;;10.70;1.00;;;;;;5107129;27;20477;-73
2024/02/01 10:49:17;;;;;;;9.53;3.40;;;10.40;1.00;;;;;;5108504;27;20952;-73
2024/02/01 10:51:46;;;;;;;8.80;3.20;;;10.30;1.00;;;;;;5105682;27;20480;-72
2024/02/01 10:54:14;;;;;;;7.97;2.30;;;10.20;1.00;;;;;;5098349;27;20470;-73
2024/02/01 10:56:46;;;;;;;10.03;3.43;;;10.30;1.00;;;;;;5105054;27;21279;-74
2024/02/01 10:59:17;;;;;;;17.50;3.27;;;10.30;1.00;;;;;;5108322;27;21263;-74
2024/02/01 11:01:45;;;;;;;13.80;3.83;;;10.50;1.00;;;;;;5110047;27;20595;-72
2024/02/01 11:04:14;;;;;;;16.40;3.93;;;10.60;1.00;;;;;;5110218;27;20454;-72
2024/02/01 11:06:50;;;;;;;9.73;3.67;;;10.80;1.00;;;;;;5109614;27;21093;-75
2024/02/01 11:09:23;;;;;;;19.37;5.00;;;11.00;1.00;;;;;;5110775;27;20537;-73
2024/02/01 11:11:54;;;;;;;14.93;3.80;;;11.40;1.00;;;;;;5108317;27;20466;-78
2024/02/01 11:14:22;;;;;;;10.93;3.90;;;11.90;1.00;;;;;;5107078;27;21068;-72
2024/02/01 11:16:56;;;;;;;11.20;3.50;;;12.30;1.00;;;;;;5106201;27;20467;-73
2024/02/01 11:19:24;;;;;;;8.40;2.90;;;12.70;1.00;;;;;;5108798;27;20991;-72
2024/02/01 11:21:55;;;;;;;18.17;4.37;;;12.40;1.00;;;;;;5108706;27;20450;-73
2024/02/01 11:24:25;;;;;;;7.73;3.07;;;12.30;1.00;;;;;;5109873;27;20454;-73
2024/02/01 11:26:57;;;;;;;7.33;2.07;;;12.70;1.00;;;;;;5107711;27;20498;-71
2024/02/01 11:29:27;;;;;;;9.80;3.07;;;13.30;1.00;;;;;;5109308;27;21032;-74
2024/02/01 11:31:56;;;;;;;11.33;3.90;;;13.00;1.00;;;;;;5108285;27;20465;-74
2024/02/01 11:34:24;;;;;;;12.90;3.27;;;13.20;1.00;;;;;;5108115;28;20920;-73
2024/02/01 11:36:51;;;;;;;15.40;4.60;;;14.40;1.00;;;;;;5108671;27;20903;-74
2024/02/01 11:39:19;;;;;;;7.27;2.53;;;15.10;1.00;;;;;;5108687;27;21035;-72
2024/02/01 11:41:48;;;;;;;7.00;2.40;;;14.30;1.00;;;;;;5107862;28;20459;-73
2024/02/01 11:44:18;;;;;;;9.43;2.80;;;13.60;1.00;;;;;;5107965;27;21039;-73
2024/02/01 11:46:48;;;;;;;5.07;2.47;;;13.90;1.00;;;;;;5110766;27;20911;-76
2024/02/01 11:49:17;;;;;;;12.63;2.83;;;13.70;1.00;;;;;;5110234;27;20541;-77
2024/02/01 11:51:47;;;;;;;11.60;5.00;;;12.70;1.00;;;;;;5104710;27;21304;-75
2024/02/01 11:54:14;;;;;;;5.83;2.97;;;12.50;1.00;;;;;;5108993;27;20454;-74
2024/02/01 11:56:44;;;;;;;11.83;3.10;;;13.00;1.00;;;;;;5108342;27;20462;-73
2024/02/01 11:59:13;;;;;;;16.93;3.90;;;12.90;1.00;;;;;;5105196;27;20450;-75
2024/02/01 12:01:45;;;;;;;12.80;3.37;;;12.70;1.00;;;;;;5108904;27;20434;-76
2024/02/01 12:04:12;;;;;;;14.10;4.97;;;13.10;1.00;;;;;;5112503;27;20458;-74
2024/02/01 12:06:43;;;;;;;15.13;4.70;;;13.00;1.00;;;;;;5107021;27;20471;-72
2024/02/01 12:09:14;;;;;;;14.03;3.80;;;12.60;1.00;;;;;;5109388;27;20442;-73
2024/02/01 12:11:43;;;;;;;7.57;2.67;;;12.30;1.00;;;;;;5090114;28;20458;-73
2024/02/01 12:14:17;;;;;;;13.17;3.13;;;12.90;1.00;;;;;;5107010;27;20456;-73
2024/02/01 12:16:49;;;;;;;16.43;4.23;;;13.30;1.00;;;;;;5089299;27;20475;-72
2024/02/01 12:19:20;;;;;;;9.30;3.20;;;12.70;1.00;;;;;;5105562;27;21165;-72
2024/02/01 12:21:51;;;;;;;11.57;4.40;;;12.00;1.00;;;;;;5112194;27;20429;-74
2024/02/01 12:24:18;;;;;;;9.10;3.20;;;11.90;1.00;;;;;;5092528;28;20453;-75
2024/02/01 12:26:46;;;;;;;6.10;2.43;;;12.30;1.00;;;;;;5109330;27;20569;-73
2024/02/01 12:29:15;;;;;;;11.10;3.43;;;13.40;1.00;;;;;;5108801;27;20997;-74
2024/02/01 12:31:43;;;;;;;22.30;5.97;;;15.10;1.00;;;;;;5108586;27;20468;-73
2024/02/01 12:34:13;;;;;;;6.90;3.23;;;16.30;1.00;;;;;;5109027;27;20469;-76
2024/02/01 12:36:40;;;;;;;8.40;2.90;;;16.60;1.00;;;;;;5113351;27;21235;-78
2024/02/01 12:39:08;;;;;;;11.30;3.50;;;17.40;1.00;;;;;;5112954;27;20449;-75
2024/02/01 12:41:38;;;;;;;12.50;4.07;;;16.40;1.00;;;;;;5108953;27;20889;-76
2024/02/01 12:44:06;;;;;;;10.27;3.73;;;16.60;1.00;;;;;;5092517;28;20504;-77
2024/02/01 12:46:34;;;;;;;9.83;2.97;;;16.30;1.00;;;;;;5110157;27;21037;-76
2024/02/01 12:49:04;;;;;;;10.53;3.30;;;15.20;1.00;;;;;;5110583;27;21167;-77
2024/02/01 12:51:34;;;;;;;10.50;3.00;;;14.80;1.00;;;;;;5110200;27;20470;-75
2024/02/01 12:54:03;;;;;;;9.40;3.73;;;15.30;1.00;;;;;;5109654;27;20495;-76
2024/02/01 12:56:33;;;;;;;11.60;3.77;;;14.80;1.00;;;;;;5091992;27;20472;-74
2024/02/01 12:59:04;;;;;;;8.20;3.07;;;14.20;1.00;;;;;;5113199;27;20427;-74
2024/02/01 13:01:32;;;;;;;8.93;2.37;;;13.10;1.00;;;;;;5109884;27;20460;-75
2024/02/01 13:04:00;;;;;;;11.80;4.17;;;12.70;1.00;;;;;;5115079;27;20462;-76
2024/02/01 13:06:28;;;;;;;6.10;3.07;;;13.30;1.00;;;;;;5113635;27;20516;-74
2024/02/01 13:08:57;;;;;;;4.30;2.87;;;13.70;1.00;;;;;;5110892;27;20482;-76
2024/02/01 13:11:28;;;;;;;9.83;3.20;;;14.30;1.00;;;;;;5114330;27;20478;-76
2024/02/01 13:13:57;;;;;;;10.90;3.43;;;14.60;1.00;;;;;;5102897;27;20430;-77
2024/02/01 13:16:25;;;;;;;11.90;3.30;;;15.10;1.00;;;;;;5109943;27;20472;-77
2024/02/01 13:18:53;;;;;;;9.80;3.47;;;15.50;1.00;;;;;;5108370;27;20457;-77
2024/02/01 13:21:20;;;;;;;9.03;3.10;;;16.10;1.00;;;;;;5114635;27;20456;-75
2024/02/01 13:23:50;;;;;;;11.83;3.97;;;16.00;1.00;;;;;;5110374;27;20496;-75
2024/02/01 13:26:20;;;;;;;9.03;3.50;;;16.50;1.00;;;;;;5099286;27;20551;-79
2024/02/01 13:28:47;;;;;;;12.23;3.67;;;16.50;1.00;;;;;;5111229;27;21045;-75
2024/02/01 13:31:15;;;;;;;7.40;2.83;;;16.50;1.00;;;;;;5107359;27;20555;-77
2024/02/01 13:33:42;;;;;;;8.17;3.60;;;15.40;1.00;;;;;;5110781;27;20477;-76
2024/02/01 13:36:10;;;;;;;10.23;3.40;;;14.60;1.00;;;;;;5091871;28;20473;-78
2024/02/01 13:38:38;;;;;;;11.30;3.90;;;13.30;1.00;;;;;;5110922;27;20447;-75
2024/02/01 13:41:06;;;;;;;10.50;3.13;;;12.30;1.00;;;;;;5110137;28;20442;-75
2024/02/01 13:43:35;;;;;;;9.50;3.53;;;11.70;1.00;;;;;;5106632;27;20475;-73
2024/02/01 13:46:03;;;;;;;8.80;3.13;;;12.10;1.00;;;;;;5105951;27;20500;-79
2024/02/01 13:48:30;;;;;;;6.60;2.77;;;12.00;1.00;;;;;;5107601;27;20477;-77
2024/02/01 13:50:58;;;;;;;9.80;3.00;;;11.40;1.00;;;;;;5108973;27;20450;-78